createdAt,value
2018-06-27T00:01:23.332Z,18.50
2018-06-27T00:03:51.391Z,21.57
2018-06-27T00:06:19.736Z,18.83
2018-06-27T00:08:47.804Z,20.90
2018-06-27T00:11:15.887Z,20.27
2018-06-27T00:13:43.976Z,21.30
2018-06-27T00:16:12.053Z,18.83
2018-06-27T00:18:40.175Z,18.33
2018-06-27T00:21:08.476Z,17.30
2018-06-27T00:23:36.590Z,19.20
2018-06-27T00:26:04.672Z,22.90
2018-06-27T00:28:32.775Z,21.17
2018-06-27T00:31:00.848Z,24.63
2018-06-27T00:33:28.883Z,20.37
2018-06-27T00:35:56.931Z,20.33
2018-06-27T00:38:24.987Z,19.43
2018-06-27T00:40:53.031Z,26.83
2018-06-27T00:43:21.077Z,17.13
2018-06-27T00:45:49.153Z,19.57
2018-06-27T00:48:17.224Z,20.00
2018-06-27T00:50:45.354Z,20.57
2018-06-27T00:53:13.427Z,18.47
2018-06-27T00:55:41.565Z,19.47
2018-06-27T00:58:09.676Z,18.27
2018-06-27T01:00:37.731Z,21.00
2018-06-27T01:03:06.106Z,22.23
2018-06-27T01:05:34.123Z,20.83
2018-06-27T01:08:02.167Z,22.80
2018-06-27T01:10:30.238Z,21.00
2018-06-27T01:12:58.271Z,19.87
2018-06-27T01:15:26.323Z,22.37
2018-06-27T01:17:58.080Z,22.33
2018-06-27T01:20:26.683Z,25.97
2018-06-27T01:22:54.733Z,24.33
2018-06-27T01:25:22.758Z,25.63
2018-06-27T01:27:50.814Z,24.67
2018-06-27T01:30:18.895Z,29.47
2018-06-27T01:32:46.919Z,31.57
2018-06-27T01:35:15.192Z,35.67
2018-06-27T01:37:43.467Z,32.87
2018-06-27T01:40:11.492Z,35.37
2018-06-27T01:42:39.526Z,36.23
2018-06-27T01:45:07.563Z,31.87
2018-06-27T01:47:35.687Z,41.57
2018-06-27T01:50:03.745Z,36.63
2018-06-27T01:52:33.131Z,30.17
2018-06-27T01:55:01.205Z,34.30
2018-06-27T01:57:29.497Z,29.97
2018-06-27T01:59:57.556Z,30.13
2018-06-27T02:02:25.647Z,30.23
2018-06-27T02:04:53.693Z,28.00
2018-06-27T02:07:21.736Z,26.40
2018-06-27T02:09:49.774Z,30.10
2018-06-27T02:12:17.835Z,26.17
2018-06-27T02:14:45.904Z,43.60
2018-06-27T02:17:13.960Z,33.37
2018-06-27T02:19:42.075Z,38.27
2018-06-27T02:22:10.188Z,29.13
2018-06-27T02:24:38.288Z,34.37
2018-06-27T02:27:06.372Z,32.67
2018-06-27T02:29:34.409Z,38.50
2018-06-27T02:32:02.456Z,31.63
2018-06-27T02:34:30.529Z,36.53
2018-06-27T02:36:58.577Z,29.27
2018-06-27T02:39:26.633Z,31.43
2018-06-27T02:41:54.675Z,31.10
2018-06-27T02:44:22.735Z,29.67
2018-06-27T02:46:51.172Z,34.57
2018-06-27T02:49:19.225Z,30.67
2018-06-27T02:51:47.274Z,29.83
2018-06-27T02:54:15.628Z,40.83
2018-06-27T02:56:43.700Z,41.77
2018-06-27T02:59:11.800Z,26.47
2018-06-27T03:01:39.893Z,24.13
2018-06-27T03:04:08.104Z,31.83
2018-06-27T03:06:36.180Z,31.63
2018-06-27T03:09:06.116Z,40.57
2018-06-27T03:11:34.175Z,32.97
2018-06-27T03:14:02.294Z,35.30
2018-06-27T03:16:30.342Z,37.77
2018-06-27T03:18:58.471Z,33.10
2018-06-27T03:21:26.640Z,36.43
2018-06-27T03:23:54.880Z,41.23
2018-06-27T03:26:22.939Z,40.07
2018-06-27T03:28:51.088Z,36.40
2018-06-27T03:31:19.661Z,33.50
2018-06-27T03:33:47.761Z,35.27
2018-06-27T03:36:15.836Z,28.87
2018-06-27T03:38:43.936Z,29.20
2018-06-27T03:41:12.039Z,25.10
2018-06-27T03:43:40.173Z,27.60
2018-06-27T03:46:08.313Z,30.53
2018-06-27T03:48:36.857Z,33.30
2018-06-27T03:51:04.917Z,31.93
2018-06-27T03:53:42.262Z,30.77
2018-06-27T03:56:12.495Z,38.37
2018-06-27T03:58:40.663Z,30.47
2018-06-27T04:01:09.980Z,29.10
2018-06-27T04:03:39.070Z,33.23
2018-06-27T04:06:07.545Z,27.40
2018-06-27T04:08:35.612Z,35.33
2018-06-27T04:11:03.644Z,28.57
2018-06-27T04:13:31.811Z,24.13
2018-06-27T04:16:00.133Z,28.07
2018-06-27T04:18:28.274Z,23.93
2018-06-27T04:20:56.360Z,32.50
2018-06-27T04:23:24.423Z,30.80
2018-06-27T04:25:52.508Z,32.83
2018-06-27T04:28:21.035Z,28.47
2018-06-27T04:30:49.288Z,25.27
2018-06-27T04:33:17.453Z,23.93
2018-06-27T04:35:45.545Z,27.40
2018-06-27T04:38:13.619Z,27.17
2018-06-27T04:40:41.723Z,24.83
2018-06-27T04:43:09.836Z,22.97
2018-06-27T04:45:37.922Z,22.00
2018-06-27T04:48:05.976Z,21.90
2018-06-27T04:50:34.029Z,18.13
2018-06-27T04:53:02.067Z,20.12
2018-06-27T04:55:30.132Z,23.02
2018-06-27T04:57:58.177Z,20.23
2018-06-27T05:00:26.219Z,17.82
2018-06-27T05:02:54.416Z,20.02
2018-06-27T05:05:22.439Z,16.77
2018-06-27T05:07:50.513Z,14.60
2018-06-27T05:10:19.109Z,18.75
2018-06-27T05:12:47.153Z,15.53
2018-06-27T05:15:15.188Z,16.97
2018-06-27T05:17:43.333Z,17.77
2018-06-27T05:20:11.588Z,16.93
2018-06-27T05:22:39.639Z,14.60
2018-06-27T05:25:07.746Z,15.95
2018-06-27T05:27:36.220Z,17.67
2018-06-27T05:30:04.580Z,19.30
2018-06-27T05:32:32.951Z,18.95
2018-06-27T05:35:00.927Z,17.00
2018-06-27T05:37:28.961Z,20.85
2018-06-27T05:39:57.028Z,17.98
2018-06-27T05:42:25.075Z,18.90
2018-06-27T05:44:53.285Z,16.48
2018-06-27T05:47:21.322Z,18.30
2018-06-27T05:49:49.444Z,20.25
2018-06-27T05:52:17.507Z,17.57
2018-06-27T05:54:45.603Z,23.90
2018-06-27T05:57:14.028Z,18.12
2018-06-27T05:59:42.112Z,20.05
2018-06-27T06:02:10.281Z,21.50
2018-06-27T06:04:38.628Z,24.50
2018-06-27T06:07:06.693Z,23.75
2018-06-27T06:09:34.735Z,30.02
2018-06-27T06:12:02.783Z,24.45
2018-06-27T06:14:30.816Z,21.52
2018-06-27T06:16:58.847Z,21.65
2018-06-27T06:19:27.447Z,22.00
2018-06-27T06:21:55.502Z,19.67
2018-06-27T06:24:23.556Z,23.05
2018-06-27T06:26:51.587Z,24.98
2018-06-27T06:29:19.644Z,27.30
2018-06-27T06:31:47.708Z,26.70
2018-06-27T06:34:15.790Z,25.02
2018-06-27T06:36:43.908Z,26.20
2018-06-27T06:39:11.988Z,24.15
2018-06-27T06:41:40.131Z,21.93
2018-06-27T06:44:08.908Z,21.02
2018-06-27T06:46:37.060Z,25.30
2018-06-27T06:49:05.095Z,24.85
2018-06-27T06:51:33.156Z,30.95
2018-06-27T06:54:01.226Z,15.28
2018-06-27T06:56:29.325Z,24.87
2018-06-27T06:58:57.350Z,27.20
2018-06-27T07:01:25.380Z,27.70
2018-06-27T07:03:53.431Z,20.27
2018-06-27T07:06:21.500Z,18.20
2018-06-27T07:08:49.559Z,18.92
2018-06-27T07:13:48.268Z,17.77
2018-06-27T07:16:16.337Z,18.25
2018-06-27T07:18:44.500Z,21.15
2018-06-27T07:21:12.630Z,19.10
2018-06-27T07:23:40.725Z,14.38
2018-06-27T07:26:08.860Z,15.15
2018-06-27T07:28:37.032Z,18.62
2018-06-27T07:31:05.000Z,17.23
2018-06-27T07:33:33.027Z,17.10
2018-06-27T07:36:01.393Z,15.30
2018-06-27T07:38:29.349Z,21.12
2018-06-27T07:40:57.372Z,16.32
2018-06-27T07:43:25.419Z,17.95
2018-06-27T07:45:53.470Z,22.98
2018-06-27T07:48:21.808Z,19.37
2018-06-27T07:50:49.848Z,17.50
2018-06-27T07:53:17.884Z,19.73
2018-06-27T07:55:46.141Z,19.10
2018-06-27T07:58:14.234Z,17.85
2018-06-27T08:00:42.377Z,15.23
2018-06-27T08:03:10.457Z,18.00
2018-06-27T08:05:38.492Z,15.90
2018-06-27T08:08:06.574Z,18.10
2018-06-27T08:10:34.668Z,15.43
2018-06-27T08:13:02.719Z,17.70
2018-06-27T08:15:30.783Z,18.55
2018-06-27T08:17:58.928Z,21.17
2018-06-27T08:20:26.912Z,20.05
2018-06-27T08:22:54.964Z,21.77
2018-06-27T08:25:23.219Z,19.50
2018-06-27T08:27:51.331Z,20.27
2018-06-27T08:30:19.375Z,17.35
2018-06-27T08:32:47.431Z,22.73
2018-06-27T08:35:15.471Z,22.22
2018-06-27T08:37:43.526Z,18.48
2018-06-27T08:40:11.655Z,22.67
2018-06-27T08:42:39.692Z,22.52
2018-06-27T08:45:07.767Z,19.62
2018-06-27T08:47:35.816Z,24.05
2018-06-27T08:50:04.008Z,18.80
2018-06-27T08:52:32.054Z,19.37
2018-06-27T08:55:00.116Z,17.70
2018-06-27T08:57:28.166Z,17.87
2018-06-27T08:59:56.219Z,17.40
2018-06-27T09:02:24.262Z,18.95
2018-06-27T09:04:52.312Z,17.62
2018-06-27T09:07:20.375Z,22.95
2018-06-27T09:09:48.428Z,22.35
2018-06-27T09:12:16.625Z,18.20
2018-06-27T09:14:44.698Z,16.32
2018-06-27T09:17:12.844Z,17.85
2018-06-27T09:19:40.897Z,19.02
2018-06-27T09:22:08.980Z,19.00
2018-06-27T09:24:37.027Z,18.25
2018-06-27T09:27:05.140Z,16.62
2018-06-27T09:29:33.191Z,14.73
2018-06-27T09:32:01.261Z,13.45
2018-06-27T09:34:29.300Z,11.25
2018-06-27T09:36:57.324Z,10.68
2018-06-27T09:39:25.371Z,9.98
2018-06-27T09:41:53.452Z,10.23
2018-06-27T09:44:21.528Z,10.80
2018-06-27T09:46:49.581Z,9.85
2018-06-27T09:49:17.637Z,9.93
2018-06-27T09:51:45.695Z,11.18
2018-06-27T09:54:13.844Z,12.10
2018-06-27T09:56:42.125Z,9.08
2018-06-27T09:59:10.124Z,8.95
2018-06-27T10:01:38.139Z,8.10
2018-06-27T10:04:06.488Z,8.13
2018-06-27T10:06:34.538Z,7.85
2018-06-27T10:09:02.576Z,7.25
2018-06-27T10:11:30.644Z,8.83
2018-06-27T10:13:58.705Z,5.90
2018-06-27T10:16:26.800Z,7.42
2018-06-27T10:18:54.835Z,6.12
2018-06-27T10:21:22.879Z,8.53
2018-06-27T10:23:51.074Z,4.90
2018-06-27T10:26:19.112Z,4.70
2018-06-27T10:28:47.140Z,5.28
2018-06-27T10:31:15.224Z,7.17
2018-06-27T10:33:43.265Z,3.80
2018-06-27T10:36:11.346Z,6.70
2018-06-27T10:38:39.417Z,5.03
2018-06-27T10:41:07.529Z,5.20
2018-06-27T10:43:35.740Z,4.78
2018-06-27T10:46:03.820Z,5.05
2018-06-27T10:48:31.896Z,6.87
2018-06-27T10:51:00.017Z,7.85
2018-06-27T10:53:28.040Z,7.03
2018-06-27T10:55:56.343Z,7.80
2018-06-27T10:58:24.415Z,6.42
2018-06-27T11:00:52.574Z,8.85
2018-06-27T11:03:21.691Z,7.62
2018-06-27T11:05:51.896Z,6.28
2018-06-27T11:08:20.028Z,6.47
2018-06-27T11:10:48.337Z,6.33
2018-06-27T11:13:16.391Z,6.22
2018-06-27T11:15:44.468Z,6.42
2018-06-27T11:18:12.532Z,11.25
2018-06-27T11:20:40.569Z,11.28
2018-06-27T11:23:08.632Z,6.83
2018-06-27T11:25:36.696Z,7.20
2018-06-27T11:28:04.728Z,7.03
2018-06-27T11:30:32.772Z,8.05
2018-06-27T11:33:00.894Z,5.25
2018-06-27T11:35:29.069Z,4.47
2018-06-27T11:37:57.092Z,7.40
2018-06-27T11:40:25.146Z,3.90
2018-06-27T11:42:53.235Z,4.67
2018-06-27T11:45:21.271Z,7.62
2018-06-27T11:47:49.312Z,4.50
2018-06-27T11:50:17.356Z,6.37
2018-06-27T11:52:45.400Z,5.00
2018-06-27T11:55:13.733Z,5.42
2018-06-27T11:57:43.384Z,10.15
2018-06-27T12:00:11.463Z,7.55
2018-06-27T12:02:39.856Z,4.87
2018-06-27T12:05:08.948Z,7.15
2018-06-27T12:07:37.007Z,5.47
2018-06-27T12:10:05.303Z,6.60
2018-06-27T12:12:33.367Z,9.18
2018-06-27T12:15:01.457Z,6.92
2018-06-27T12:17:29.511Z,6.12
2018-06-27T12:19:57.656Z,6.53
2018-06-27T12:22:25.699Z,5.70
2018-06-27T12:24:53.735Z,10.05
2018-06-27T12:27:21.787Z,6.92
2018-06-27T12:29:49.840Z,6.80
2018-06-27T12:32:17.886Z,5.65
2018-06-27T12:34:45.916Z,9.30
2018-06-27T12:37:13.950Z,7.08
2018-06-27T12:39:41.996Z,7.72
2018-06-27T12:42:10.027Z,8.80
2018-06-27T12:44:38.729Z,5.87
2018-06-27T12:47:06.759Z,7.08
2018-06-27T12:49:34.812Z,5.58
2018-06-27T12:52:02.936Z,5.72
2018-06-27T12:54:30.987Z,6.62
2018-06-27T12:56:59.024Z,5.12
2018-06-27T12:59:27.668Z,4.10
2018-06-27T13:01:55.708Z,3.65
2018-06-27T13:04:23.800Z,4.00
2018-06-27T13:06:51.844Z,3.10
2018-06-27T13:09:19.984Z,4.60
2018-06-27T13:11:47.936Z,2.67
2018-06-27T13:14:15.991Z,3.80
2018-06-27T13:16:44.032Z,3.40
2018-06-27T13:19:12.076Z,2.00
2018-06-27T13:21:40.396Z,2.30
2018-06-27T13:24:08.432Z,1.98
2018-06-27T13:26:36.492Z,2.50
2018-06-27T13:29:04.666Z,5.40
2018-06-27T13:31:32.704Z,2.45
2018-06-27T13:34:01.023Z,2.33
2018-06-27T13:36:29.109Z,2.35
2018-06-27T13:38:57.168Z,2.90
2018-06-27T13:41:25.248Z,3.42
2018-06-27T13:43:53.402Z,1.67
2018-06-27T13:46:21.460Z,2.22
2018-06-27T13:48:49.485Z,2.17
2018-06-27T13:51:17.815Z,4.25
2018-06-27T13:53:45.860Z,1.85
2018-06-27T13:56:13.983Z,1.85
2018-06-27T13:58:42.106Z,2.95
2018-06-27T14:01:10.196Z,5.30
2018-06-27T14:03:38.268Z,1.98
2018-06-27T14:06:06.332Z,3.67
2018-06-27T14:08:34.372Z,1.70
2018-06-27T14:11:02.444Z,3.42
2018-06-27T14:13:30.717Z,1.50
2018-06-27T14:15:58.760Z,5.03
2018-06-27T14:18:26.804Z,1.90
2018-06-27T14:20:54.881Z,2.65
2018-06-27T14:23:22.911Z,2.02
2018-06-27T14:25:50.956Z,3.50
2018-06-27T14:28:19.111Z,1.60
2018-06-27T14:30:47.171Z,1.90
2018-06-27T14:33:15.359Z,3.75
2018-06-27T14:35:43.369Z,1.60
2018-06-27T14:38:11.573Z,4.03
2018-06-27T14:40:39.890Z,3.70
2018-06-27T14:43:08.047Z,2.05
2018-06-27T14:45:36.105Z,3.52
2018-06-27T14:48:04.339Z,3.20
2018-06-27T14:50:32.214Z,1.55
2018-06-27T14:53:00.261Z,4.12
2018-06-27T14:55:28.317Z,3.40
2018-06-27T14:57:56.365Z,2.08
2018-06-27T15:00:24.405Z,2.75
2018-06-27T15:02:52.474Z,1.52
2018-06-27T15:05:20.532Z,1.60
2018-06-27T15:07:48.600Z,1.80
2018-06-27T15:10:16.828Z,4.95
2018-06-27T15:12:44.961Z,1.60
2018-06-27T15:15:13.103Z,2.58
2018-06-27T15:17:41.284Z,5.30
2018-06-27T15:20:10.031Z,1.85
2018-06-27T15:22:38.833Z,2.30
2018-06-27T15:25:07.293Z,3.50
2018-06-27T15:27:35.411Z,3.35
2018-06-27T15:30:03.453Z,2.30
2018-06-27T15:32:31.624Z,4.60
2018-06-27T15:34:59.694Z,2.62
2018-06-27T15:37:27.708Z,3.77
2018-06-27T15:39:55.777Z,2.50
2018-06-27T15:42:23.812Z,2.50
2018-06-27T15:44:51.860Z,3.02
2018-06-27T15:47:19.904Z,2.15
2018-06-27T15:49:47.948Z,2.40
2018-06-27T15:52:15.996Z,2.50
2018-06-27T15:54:44.060Z,2.05
2018-06-27T15:57:12.227Z,2.30
2018-06-27T15:59:45.200Z,2.70
2018-06-27T16:02:13.251Z,3.98
2018-06-27T16:04:41.279Z,3.25
2018-06-27T16:07:09.300Z,3.10
2018-06-27T16:09:37.431Z,2.58
2018-06-27T16:12:05.533Z,2.60
2018-06-27T16:14:33.676Z,3.98
2018-06-27T16:17:01.959Z,4.90
2018-06-27T16:19:29.959Z,2.72
2018-06-27T16:21:58.028Z,2.67
2018-06-27T16:24:26.246Z,4.90
2018-06-27T16:26:54.274Z,2.87
2018-06-27T16:29:22.360Z,3.05
2018-06-27T16:31:50.416Z,3.35
2018-06-27T16:34:18.680Z,2.35
2018-06-27T16:36:46.705Z,2.65
2018-06-27T16:39:14.881Z,2.42
2018-06-27T16:41:43.234Z,2.60
2018-06-27T16:44:11.896Z,4.87
2018-06-27T16:46:40.114Z,2.75
2018-06-27T16:49:09.168Z,3.52
2018-06-27T16:51:37.495Z,4.65
2018-06-27T16:54:05.779Z,3.10
2018-06-27T16:56:33.908Z,4.80
2018-06-27T16:59:02.132Z,2.47
2018-06-27T17:01:30.414Z,3.27
2018-06-27T17:03:58.560Z,3.47
2018-06-27T17:06:26.590Z,4.50
2018-06-27T17:08:54.628Z,3.30
2018-06-27T17:11:22.867Z,2.58
2018-06-27T17:13:50.900Z,2.58
2018-06-27T17:16:18.996Z,4.33
2018-06-27T17:18:47.170Z,2.55
2018-06-27T17:21:15.471Z,2.60
2018-06-27T17:23:43.657Z,3.12
2018-06-27T17:26:11.869Z,2.17
2018-06-27T17:28:39.976Z,2.50
2018-06-27T17:31:08.316Z,3.15
2018-06-27T17:33:36.352Z,4.95
2018-06-27T17:36:04.408Z,3.58
2018-06-27T17:38:32.600Z,2.75
2018-06-27T17:41:00.712Z,3.25
2018-06-27T17:43:28.784Z,2.70
2018-06-27T17:45:56.857Z,4.80
2018-06-27T17:48:24.908Z,2.58
2018-06-27T17:50:52.929Z,2.15
2018-06-27T17:53:20.992Z,2.30
2018-06-27T17:55:49.027Z,3.05
2018-06-27T17:58:17.102Z,3.25
2018-06-27T18:00:45.135Z,2.40
2018-06-27T18:03:13.188Z,2.50
2018-06-27T18:05:41.236Z,3.10
2018-06-27T18:08:09.300Z,2.92
2018-06-27T18:10:37.311Z,3.60
2018-06-27T18:13:05.356Z,2.30
2018-06-27T18:15:33.387Z,2.50
2018-06-27T18:18:01.425Z,5.33
2018-06-27T18:20:29.475Z,2.45
2018-06-27T18:22:57.504Z,2.55
2018-06-27T18:25:25.575Z,2.67
2018-06-27T18:27:53.628Z,3.35
2018-06-27T18:30:21.672Z,2.35
2018-06-27T18:32:49.727Z,2.27
2018-06-27T18:35:17.788Z,2.45
2018-06-27T18:37:45.819Z,3.22
2018-06-27T18:40:13.881Z,3.42
2018-06-27T18:42:41.903Z,2.30
2018-06-27T18:45:09.993Z,4.12
2018-06-27T18:47:38.074Z,5.45
2018-06-27T18:50:06.135Z,2.55
2018-06-27T18:52:34.167Z,3.72
2018-06-27T18:55:02.275Z,3.00
2018-06-27T18:57:30.311Z,2.67
2018-06-27T18:59:58.359Z,3.37
2018-06-27T19:02:26.388Z,3.17
2018-06-27T19:04:54.464Z,6.75
2018-06-27T19:07:22.520Z,2.08
2018-06-27T19:09:50.597Z,2.12
2018-06-27T19:12:18.768Z,4.22
2018-06-27T19:14:47.021Z,2.95
2018-06-27T19:17:15.252Z,2.75
2018-06-27T19:19:43.527Z,3.60
2018-06-27T19:22:11.730Z,2.85
2018-06-27T19:24:39.771Z,3.22
2018-06-27T19:27:07.961Z,4.50
2018-06-27T19:29:35.994Z,2.60
2018-06-27T19:32:04.003Z,3.30
2018-06-27T19:34:32.076Z,6.03
2018-06-27T19:37:00.378Z,4.22
2018-06-27T19:39:37.465Z,4.35
2018-06-27T19:41:56.561Z,2.22
2018-06-27T19:44:24.616Z,2.60
2018-06-27T19:46:52.712Z,2.70
2018-06-27T19:49:20.903Z,2.52
2018-06-27T19:51:49.114Z,2.60
2018-06-27T19:54:17.179Z,3.00
2018-06-27T19:56:45.292Z,2.60
2018-06-27T19:59:13.339Z,2.40
2018-06-27T20:01:41.420Z,2.47
2018-06-27T20:04:21.921Z,5.90
2018-06-27T20:06:49.909Z,3.58
2018-06-27T20:09:18.060Z,2.52
2018-06-27T20:11:46.112Z,4.65
2018-06-27T20:14:14.232Z,4.00
2018-06-27T20:16:42.334Z,3.85
2018-06-27T20:19:10.414Z,4.10
2018-06-27T20:21:38.430Z,2.95
2018-06-27T20:24:06.444Z,2.50
2018-06-27T20:26:34.590Z,2.42
2018-06-27T20:29:02.641Z,4.55
2018-06-27T20:31:30.700Z,3.15
2018-06-27T20:33:58.745Z,8.95
2018-06-27T20:36:26.804Z,6.08
2018-06-27T20:38:54.877Z,2.83
2018-06-27T20:41:22.920Z,2.80
2018-06-27T20:43:50.964Z,4.25
2018-06-27T20:46:19.019Z,3.10
2018-06-27T20:48:47.221Z,4.78
2018-06-27T20:51:15.300Z,3.83
2018-06-27T20:53:43.564Z,6.00
2018-06-27T20:56:11.611Z,5.95
2018-06-27T20:58:39.704Z,5.78
2018-06-27T21:01:07.800Z,5.03
2018-06-27T21:03:35.840Z,6.22
2018-06-27T21:06:03.916Z,4.37
2018-06-27T21:08:31.991Z,5.92
2018-06-27T21:11:00.053Z,4.42
2018-06-27T21:13:28.143Z,4.03
2018-06-27T21:15:56.234Z,3.87
2018-06-27T21:18:24.297Z,3.50
2018-06-27T21:23:26.732Z,3.98
2018-06-27T21:25:54.841Z,3.33
2018-06-27T21:28:22.852Z,3.52
2018-06-27T21:30:51.708Z,3.40
2018-06-27T21:33:19.779Z,3.72
2018-06-27T21:35:47.828Z,4.12
2018-06-27T21:38:16.089Z,10.65
2018-06-27T21:40:44.221Z,6.58
2018-06-27T21:43:12.308Z,3.72
2018-06-27T21:45:40.484Z,3.83
2018-06-27T21:48:08.667Z,5.17
2018-06-27T21:50:36.769Z,4.50
2018-06-27T21:53:05.509Z,5.13
2018-06-27T21:55:33.600Z,7.77
2018-06-27T21:58:01.664Z,5.37
2018-06-27T22:00:31.895Z,4.67
2018-06-27T22:03:00.489Z,3.87
2018-06-27T22:05:28.532Z,4.67
2018-06-27T22:07:56.571Z,5.97
2018-06-27T22:10:24.686Z,4.77
2018-06-27T22:12:52.917Z,5.13
2018-06-27T22:15:20.996Z,3.90
2018-06-27T22:17:49.045Z,4.90
2018-06-27T22:20:17.144Z,3.77
2018-06-27T22:22:45.299Z,4.00
2018-06-27T22:25:13.439Z,4.13
2018-06-27T22:27:41.580Z,4.30
2018-06-27T22:30:09.781Z,3.97
2018-06-27T22:32:37.854Z,3.93
2018-06-27T22:35:05.953Z,3.87
2018-06-27T22:37:34.096Z,5.83
2018-06-27T22:40:02.232Z,4.13
2018-06-27T22:42:30.321Z,4.13
2018-06-27T22:44:58.375Z,4.60
2018-06-27T22:47:26.399Z,4.00
2018-06-27T22:49:54.455Z,4.37
2018-06-27T22:52:22.496Z,5.33
2018-06-27T22:54:50.548Z,4.43
2018-06-27T22:57:18.601Z,5.40
2018-06-27T22:59:46.669Z,5.10
2018-06-27T23:02:14.740Z,14.43
2018-06-27T23:04:42.841Z,4.80
2018-06-27T23:07:10.935Z,4.33
2018-06-27T23:09:38.998Z,4.23
2018-06-27T23:12:07.087Z,5.30
2018-06-27T23:14:35.123Z,4.37
2018-06-27T23:17:03.172Z,4.27
2018-06-27T23:19:31.220Z,4.47
2018-06-27T23:21:59.265Z,3.70
2018-06-27T23:24:27.403Z,4.60
2018-06-27T23:26:55.449Z,3.90
2018-06-27T23:29:23.493Z,3.93
2018-06-27T23:31:51.524Z,5.83
2018-06-27T23:34:19.573Z,4.30
2018-06-27T23:36:47.638Z,4.00
2018-06-27T23:39:15.720Z,4.30
2018-06-27T23:41:44.460Z,4.43
2018-06-27T23:44:12.601Z,3.83
2018-06-27T23:46:40.676Z,3.87
2018-06-27T23:49:08.801Z,4.07
2018-06-27T23:51:36.938Z,4.73
2018-06-27T23:54:05.363Z,4.23
2018-06-27T23:56:33.463Z,4.07
2018-06-27T23:59:01.540Z,4.07
